createdAt,value
2018-11-14T00:00:25.346Z,4.50
2018-11-14T00:02:53.537Z,3.20
2018-11-14T00:05:21.723Z,2.40
2018-11-14T00:07:49.941Z,5.80
2018-11-14T00:10:18.727Z,4.93
2018-11-14T00:12:46.642Z,4.47
2018-11-14T00:15:16.246Z,5.13
2018-11-14T00:17:45.532Z,2.20
2018-11-14T00:20:14.093Z,7.03
2018-11-14T00:22:43.196Z,6.87
2018-11-14T00:25:11.386Z,3.73
2018-11-14T00:27:39.591Z,4.43
2018-11-14T00:30:09.642Z,3.63
2018-11-14T00:32:37.845Z,4.20
2018-11-14T00:35:06.062Z,4.43
2018-11-14T00:37:34.271Z,3.77
2018-11-14T00:40:02.461Z,3.30
2018-11-14T00:42:30.661Z,3.43
2018-11-14T00:44:58.859Z,2.53
2018-11-14T00:47:27.069Z,3.77
2018-11-14T00:49:55.298Z,2.40
2018-11-14T00:52:23.541Z,4.20
2018-11-14T00:54:51.739Z,4.50
2018-11-14T00:57:19.950Z,3.27
2018-11-14T00:59:48.141Z,3.77
2018-11-14T01:02:16.321Z,3.03
2018-11-14T01:04:44.501Z,2.80
2018-11-14T01:07:12.730Z,3.00
2018-11-14T01:09:40.933Z,3.30
2018-11-14T01:12:09.229Z,2.53
2018-11-14T01:14:37.334Z,2.67
2018-11-14T01:17:05.939Z,2.87
2018-11-14T01:19:34.131Z,2.13
2018-11-14T01:22:02.351Z,2.40
2018-11-14T01:24:30.583Z,2.80
2018-11-14T01:26:58.787Z,2.33
2018-11-14T01:29:26.977Z,2.40
2018-11-14T01:31:55.165Z,2.87
2018-11-14T01:34:23.370Z,2.13
2018-11-14T01:36:51.554Z,2.40
2018-11-14T01:39:19.749Z,2.40
2018-11-14T01:41:47.942Z,3.40
2018-11-14T01:44:16.129Z,3.33
2018-11-14T01:46:44.345Z,3.37
2018-11-14T01:49:12.543Z,3.43
2018-11-14T01:51:40.749Z,5.27
2018-11-14T01:54:08.945Z,3.00
2018-11-14T01:56:37.121Z,3.00
2018-11-14T01:59:05.306Z,3.00
2018-11-14T02:01:33.486Z,2.43
2018-11-14T02:04:01.719Z,2.93
2018-11-14T02:06:29.892Z,4.03
2018-11-14T02:08:58.090Z,2.50
2018-11-14T02:11:33.044Z,3.97
2018-11-14T02:14:01.249Z,1.80
2018-11-14T02:16:29.432Z,2.80
2018-11-14T02:18:57.626Z,1.90
2018-11-14T02:21:25.809Z,1.90
2018-11-14T02:23:54.016Z,1.90
2018-11-14T02:26:22.206Z,3.20
2018-11-14T02:28:51.765Z,2.07
2018-11-14T02:31:19.975Z,2.57
2018-11-14T02:33:48.191Z,2.63
2018-11-14T02:36:16.378Z,3.67
2018-11-14T02:38:44.584Z,2.60
2018-11-14T02:41:12.774Z,2.17
2018-11-14T02:43:40.961Z,1.93
2018-11-14T02:46:09.157Z,4.50
2018-11-14T02:48:37.354Z,3.97
2018-11-14T02:51:15.676Z,1.80
2018-11-14T02:53:43.871Z,2.50
2018-11-14T02:56:12.111Z,2.40
2018-11-14T02:58:40.310Z,3.50
2018-11-14T03:01:08.765Z,2.43
2018-11-14T03:06:11.576Z,3.13
2018-11-14T03:08:39.774Z,2.40
2018-11-14T03:11:08.529Z,2.30
2018-11-14T03:13:36.721Z,2.00
2018-11-14T03:16:05.041Z,2.23
2018-11-14T03:18:33.289Z,3.47
2018-11-14T03:21:01.569Z,2.23
2018-11-14T03:23:29.769Z,2.50
2018-11-14T03:25:57.969Z,3.13
2018-11-14T03:28:26.214Z,2.70
2018-11-14T03:30:54.393Z,2.60
2018-11-14T03:33:22.622Z,2.53
2018-11-14T03:35:56.177Z,3.87
2018-11-14T03:38:24.369Z,2.90
2018-11-14T03:40:52.555Z,2.67
2018-11-14T03:43:20.761Z,3.70
2018-11-14T03:45:48.972Z,3.20
2018-11-14T03:48:17.153Z,3.03
2018-11-14T03:50:45.353Z,3.87
2018-11-14T03:53:13.542Z,4.03
2018-11-14T03:55:41.737Z,3.20
2018-11-14T03:58:09.970Z,2.80
2018-11-14T04:00:38.130Z,2.73
2018-11-14T04:03:06.649Z,4.83
2018-11-14T04:05:34.895Z,6.33
2018-11-14T04:08:03.058Z,3.87
2018-11-14T04:10:31.249Z,3.00
2018-11-14T04:12:59.451Z,3.90
2018-11-14T04:15:27.648Z,5.73
2018-11-14T04:17:55.835Z,3.90
2018-11-14T04:20:24.030Z,4.63
2018-11-14T04:22:52.219Z,3.77
2018-11-14T04:25:21.058Z,4.57
2018-11-14T04:27:49.617Z,2.97
2018-11-14T04:30:19.231Z,3.30
2018-11-14T04:32:47.417Z,2.73
2018-11-14T04:35:16.506Z,4.13
2018-11-14T04:37:44.758Z,4.53
2018-11-14T04:40:15.005Z,3.33
2018-11-14T04:42:43.186Z,3.63
2018-11-14T04:45:16.296Z,2.77
2018-11-14T04:47:44.561Z,3.60
2018-11-14T04:50:14.865Z,3.67
2018-11-14T04:52:43.537Z,3.87
2018-11-14T04:55:13.873Z,10.00
2018-11-14T04:57:42.457Z,4.10
2018-11-14T05:00:11.972Z,3.80
2018-11-14T05:02:41.222Z,3.93
2018-11-14T05:05:11.494Z,3.70
2018-11-14T05:07:39.962Z,4.17
2018-11-14T05:10:10.080Z,5.17
2018-11-14T05:12:38.371Z,7.60
2018-11-14T05:15:07.230Z,5.30
2018-11-14T05:17:35.429Z,6.23
2018-11-14T05:20:03.641Z,4.87
2018-11-14T05:22:31.897Z,4.70
2018-11-14T05:25:00.261Z,4.63
2018-11-14T05:27:28.453Z,4.73
2018-11-14T05:29:56.649Z,4.37
2018-11-14T05:32:24.851Z,7.80
2018-11-14T05:34:53.099Z,8.33
2018-11-14T05:37:21.276Z,5.17
2018-11-14T05:39:49.639Z,5.57
2018-11-14T05:42:17.723Z,5.13
2018-11-14T05:44:46.013Z,7.57
2018-11-14T05:47:14.202Z,9.10
2018-11-14T05:49:42.421Z,11.70
2018-11-14T05:52:10.675Z,11.40
2018-11-14T05:54:39.295Z,7.57
2018-11-14T05:57:07.542Z,7.60
2018-11-14T05:59:35.748Z,9.83
2018-11-14T06:02:03.947Z,8.43
2018-11-14T06:04:32.186Z,10.70
2018-11-14T06:07:00.432Z,8.20
2018-11-14T06:09:28.610Z,9.80
2018-11-14T06:11:56.813Z,8.37
2018-11-14T06:14:25.013Z,7.87
2018-11-14T06:16:53.249Z,8.17
2018-11-14T06:19:21.425Z,11.13
2018-11-14T06:21:49.924Z,11.73
2018-11-14T06:24:18.067Z,10.00
2018-11-14T06:26:46.277Z,12.57
2018-11-14T06:29:14.491Z,14.67
2018-11-14T06:31:42.714Z,14.70
2018-11-14T06:34:10.947Z,11.83
2018-11-14T06:36:39.178Z,15.03
2018-11-14T06:39:10.298Z,12.70
2018-11-14T06:41:38.545Z,9.20
2018-11-14T06:44:07.667Z,7.40
2018-11-14T06:46:35.911Z,9.13
2018-11-14T06:49:04.223Z,9.37
2018-11-14T06:51:32.466Z,10.40
2018-11-14T06:54:00.650Z,9.40
2018-11-14T06:56:28.863Z,10.13
2018-11-14T06:58:57.162Z,8.93
2018-11-14T07:01:25.388Z,17.90
2018-11-14T07:03:53.606Z,12.93
2018-11-14T07:06:21.831Z,12.17
2018-11-14T07:08:50.053Z,16.40
2018-11-14T07:11:18.286Z,13.67
2018-11-14T07:13:46.489Z,15.83
2018-11-14T07:16:14.718Z,14.00
2018-11-14T07:18:42.918Z,16.30
2018-11-14T07:21:11.169Z,15.17
2018-11-14T07:23:39.409Z,14.40
2018-11-14T07:26:07.597Z,13.87
2018-11-14T07:28:35.794Z,15.37
2018-11-14T07:31:04.009Z,14.57
2018-11-14T07:33:32.252Z,24.57
2018-11-14T07:36:00.495Z,24.97
2018-11-14T07:38:48.379Z,17.63
2018-11-14T07:41:28.670Z,31.73
2018-11-14T07:43:57.152Z,33.27
2018-11-14T07:46:26.859Z,27.00
2018-11-14T07:48:55.131Z,24.23
2018-11-14T07:51:23.322Z,16.47
2018-11-14T07:53:51.710Z,13.90
2018-11-14T07:56:19.976Z,12.10
2018-11-14T07:58:48.254Z,13.27
2018-11-14T08:01:16.549Z,12.80
2018-11-14T08:03:45.202Z,14.87
2018-11-14T08:06:13.456Z,14.70
2018-11-14T08:08:41.953Z,14.60
2018-11-14T08:11:10.222Z,12.73
2018-11-14T08:13:39.946Z,14.67
2018-11-14T08:16:08.162Z,13.10
2018-11-14T08:18:36.417Z,11.13
2018-11-14T08:21:04.976Z,11.40
2018-11-14T08:23:33.207Z,11.23
2018-11-14T08:26:01.407Z,15.47
2018-11-14T08:28:29.633Z,12.60
2018-11-14T08:30:57.850Z,16.47
2018-11-14T08:33:26.091Z,10.90
2018-11-14T08:35:54.393Z,10.67
2018-11-14T08:38:22.664Z,13.97
2018-11-14T08:40:50.881Z,11.70
2018-11-14T08:43:19.100Z,10.17
2018-11-14T08:45:47.363Z,14.37
2018-11-14T08:48:15.582Z,13.60
2018-11-14T08:50:43.790Z,9.20
2018-11-14T08:53:12.276Z,10.53
2018-11-14T08:55:40.475Z,12.43
2018-11-14T08:58:11.910Z,18.03
2018-11-14T09:00:40.169Z,15.87
2018-11-14T09:03:10.303Z,25.87
2018-11-14T09:05:38.527Z,21.40
2018-11-14T09:08:06.751Z,25.83
2018-11-14T09:10:34.998Z,15.87
2018-11-14T09:13:03.302Z,23.47
2018-11-14T09:15:31.454Z,19.53
2018-11-14T09:17:59.745Z,12.83
2018-11-14T09:20:28.654Z,15.60
2018-11-14T09:22:56.881Z,16.50
2018-11-14T09:25:28.271Z,23.17
2018-11-14T09:27:57.135Z,23.17
2018-11-14T09:30:26.157Z,19.97
2018-11-14T09:32:54.462Z,13.13
2018-11-14T09:35:23.813Z,13.63
2018-11-14T09:37:52.577Z,13.93
2018-11-14T09:40:22.211Z,15.47
2018-11-14T09:42:50.417Z,17.70
2018-11-14T09:45:20.098Z,13.07
2018-11-14T09:47:48.360Z,18.93
2018-11-14T09:50:17.883Z,17.00
2018-11-14T09:52:47.406Z,16.83
2018-11-14T09:55:15.634Z,31.40
2018-11-14T09:57:44.261Z,23.70
2018-11-14T10:00:15.913Z,37.20
2018-11-14T10:02:44.257Z,16.03
2018-11-14T10:05:15.745Z,20.77
2018-11-14T10:07:44.341Z,21.30
2018-11-14T10:10:13.939Z,20.27
2018-11-14T10:12:42.139Z,19.27
2018-11-14T10:15:22.707Z,21.57
2018-11-14T10:17:50.887Z,19.33
2018-11-14T10:20:20.662Z,20.90
2018-11-14T10:22:48.914Z,18.40
2018-11-14T10:25:17.446Z,27.70
2018-11-14T10:27:46.294Z,23.20
2018-11-14T10:30:16.773Z,26.13
2018-11-14T10:32:45.743Z,23.80
2018-11-14T10:35:14.000Z,31.20
2018-11-14T10:37:42.517Z,32.80
2018-11-14T10:40:13.427Z,30.73
2018-11-14T10:42:42.592Z,27.57
2018-11-14T10:45:12.230Z,30.90
2018-11-14T10:47:40.745Z,29.37
2018-11-14T10:50:11.359Z,33.80
2018-11-14T10:52:39.629Z,38.30
2018-11-14T10:55:08.926Z,32.40
2018-11-14T10:57:37.707Z,29.73
2018-11-14T11:00:12.902Z,33.30
2018-11-14T11:02:46.466Z,32.90
2018-11-14T11:07:22.054Z,28.77
2018-11-14T11:10:53.141Z,24.77
2018-11-14T11:15:33.599Z,27.20
2018-11-14T11:18:04.139Z,27.27
2018-11-14T11:20:32.385Z,31.03
2018-11-14T11:23:00.618Z,26.40
2018-11-14T11:25:28.881Z,25.83
2018-11-14T11:27:57.107Z,32.50
2018-11-14T11:30:25.334Z,32.40
2018-11-14T11:32:53.582Z,28.00
2018-11-14T11:35:21.830Z,31.30
2018-11-14T11:37:50.033Z,29.37
2018-11-14T11:40:18.276Z,28.67
2018-11-14T11:42:46.498Z,24.83
2018-11-14T11:45:14.713Z,30.77
2018-11-14T11:47:42.920Z,24.30
2018-11-14T11:50:11.148Z,27.63
2018-11-14T11:52:39.324Z,26.40
2018-11-14T11:55:07.710Z,28.97
2018-11-14T11:57:35.970Z,27.90
2018-11-14T12:00:05.619Z,31.03
2018-11-14T12:02:33.835Z,34.03
2018-11-14T12:05:02.053Z,31.93
2018-11-14T12:07:30.270Z,32.20
2018-11-14T12:09:58.494Z,29.83
2018-11-14T12:12:26.726Z,29.50
2018-11-14T12:14:54.956Z,26.20
2018-11-14T12:17:23.206Z,27.77
2018-11-14T12:19:51.476Z,27.70
2018-11-14T12:22:19.701Z,30.03
2018-11-14T12:24:47.918Z,29.60
2018-11-14T12:27:16.228Z,27.70
2018-11-14T12:29:44.451Z,33.50
2018-11-14T12:32:12.853Z,31.10
2018-11-14T12:34:41.148Z,33.83
2018-11-14T12:37:09.297Z,33.50
2018-11-14T12:39:37.587Z,38.23
2018-11-14T12:42:06.129Z,30.07
2018-11-14T12:44:34.345Z,31.70
2018-11-14T12:47:02.565Z,33.93
2018-11-14T12:49:30.781Z,32.13
2018-11-14T12:51:59.027Z,33.20
2018-11-14T12:54:27.238Z,32.87
2018-11-14T12:56:55.506Z,30.57
2018-11-14T12:59:23.857Z,32.10
2018-11-14T13:01:52.034Z,31.37
2018-11-14T13:04:20.229Z,29.20
2018-11-14T13:06:48.468Z,31.40
2018-11-14T13:09:16.681Z,28.27
2018-11-14T13:11:44.877Z,28.83
2018-11-14T13:14:13.092Z,27.23
2018-11-14T13:16:41.315Z,32.20
2018-11-14T13:19:09.540Z,30.77
2018-11-14T13:21:37.761Z,28.80
2018-11-14T13:24:06.005Z,32.33
2018-11-14T13:26:34.253Z,35.07
2018-11-14T13:29:02.537Z,29.23
2018-11-14T13:31:30.763Z,28.80
2018-11-14T13:33:59.009Z,28.23
2018-11-14T13:36:27.234Z,30.43
2018-11-14T13:38:55.441Z,27.97
2018-11-14T13:41:23.642Z,29.87
2018-11-14T13:43:51.911Z,27.20
2018-11-14T13:46:20.126Z,27.03
2018-11-14T13:48:48.365Z,30.90
2018-11-14T13:51:16.778Z,32.33
2018-11-14T13:53:44.761Z,27.63
2018-11-14T13:56:13.013Z,32.63
2018-11-14T13:58:41.209Z,33.07
2018-11-14T14:01:09.473Z,27.43
2018-11-14T14:03:37.654Z,30.33
2018-11-14T14:06:05.857Z,29.23
2018-11-14T14:08:34.070Z,26.30
2018-11-14T14:11:02.286Z,31.23
2018-11-14T14:13:30.508Z,29.87
2018-11-14T14:15:58.718Z,28.60
2018-11-14T14:18:26.925Z,33.00
2018-11-14T14:20:55.145Z,33.40
2018-11-14T14:23:23.345Z,27.63
2018-11-14T14:25:51.563Z,35.23
2018-11-14T14:28:19.767Z,31.53
2018-11-14T14:30:48.035Z,31.20
2018-11-14T14:33:16.208Z,31.57
2018-11-14T14:35:44.422Z,29.20
2018-11-14T14:38:12.750Z,26.57
2018-11-14T14:40:40.897Z,29.17
2018-11-14T14:43:09.101Z,29.80
2018-11-14T14:45:37.324Z,27.60
2018-11-14T14:48:05.890Z,31.37
2018-11-14T14:50:34.105Z,31.50
2018-11-14T14:53:02.310Z,29.73
2018-11-14T14:55:30.521Z,32.30
2018-11-14T14:57:58.747Z,32.90
2018-11-14T15:00:28.055Z,32.13
2018-11-14T15:02:56.365Z,28.77
2018-11-14T15:05:24.578Z,27.47
2018-11-14T15:07:52.790Z,27.27
2018-11-14T15:10:22.162Z,52.93
2018-11-14T15:12:50.358Z,47.20
2018-11-14T15:15:19.038Z,32.40
2018-11-14T15:17:47.314Z,32.73
2018-11-14T15:20:17.631Z,32.47
2018-11-14T15:22:46.274Z,31.30
2018-11-14T15:25:15.786Z,31.40
2018-11-14T15:27:44.525Z,32.97
2018-11-14T15:30:15.646Z,36.23
2018-11-14T15:32:43.853Z,33.67
2018-11-14T15:35:13.554Z,30.30
2018-11-14T15:43:27.217Z,31.80
2018-11-14T15:45:55.877Z,35.70
2018-11-14T15:48:24.463Z,34.87
2018-11-14T15:50:53.065Z,39.90
2018-11-14T15:53:21.694Z,32.60
2018-11-14T15:55:50.425Z,37.53
2018-11-14T15:58:19.799Z,35.90
2018-11-14T16:00:48.537Z,37.13
2018-11-14T16:03:17.462Z,35.57
2018-11-14T16:05:46.675Z,36.47
2018-11-14T16:08:16.653Z,38.47
2018-11-14T16:10:48.990Z,40.67
2018-11-14T16:13:18.810Z,35.13
2018-11-14T16:15:47.202Z,35.10
2018-11-14T16:18:17.203Z,40.10
2018-11-14T16:20:45.744Z,33.77
2018-11-14T16:23:14.450Z,44.57
2018-11-14T16:25:43.294Z,38.77
2018-11-14T16:28:12.116Z,36.03
2018-11-14T16:30:40.820Z,43.00
2018-11-14T16:33:09.624Z,36.90
2018-11-14T16:35:38.306Z,55.00
2018-11-14T16:38:10.413Z,45.70
2018-11-14T16:40:38.971Z,45.77
2018-11-14T16:43:09.752Z,46.37
2018-11-14T16:45:38.269Z,41.43
2018-11-14T16:48:07.010Z,43.97
2018-11-14T16:50:35.855Z,41.13
2018-11-14T16:53:05.503Z,43.90
2018-11-14T16:55:35.893Z,48.07
2018-11-14T16:58:05.816Z,39.90
2018-11-14T17:00:34.971Z,41.60
2018-11-14T17:03:04.169Z,34.80
2018-11-14T17:05:33.475Z,88.10
2018-11-14T17:08:02.694Z,37.90
2018-11-14T17:10:31.819Z,45.80
2018-11-14T17:13:01.350Z,50.97
2018-11-14T17:15:30.183Z,46.23
2018-11-14T17:17:59.202Z,40.10
2018-11-14T17:20:28.726Z,67.70
2018-11-14T17:23:11.000Z,43.60
2018-11-14T17:25:39.697Z,39.70
2018-11-14T17:28:08.788Z,46.63
2018-11-14T17:30:37.589Z,43.63
2018-11-14T17:33:11.180Z,37.90
2018-11-14T17:35:40.152Z,34.20
2018-11-14T17:38:09.359Z,32.20
2018-11-14T17:40:38.713Z,37.17
2018-11-14T17:43:07.620Z,27.23
2018-11-14T17:45:38.060Z,31.73
2018-11-14T17:48:06.265Z,37.20
2018-11-14T17:50:34.760Z,28.93
2018-11-14T17:53:03.637Z,35.90
2018-11-14T17:55:32.027Z,40.93
2018-11-14T17:58:00.505Z,59.10
2018-11-14T18:00:29.997Z,55.43
2018-11-14T18:02:58.228Z,51.10
2018-11-14T18:05:27.673Z,31.20
2018-11-14T18:07:56.042Z,32.60
2018-11-14T18:10:25.511Z,35.93
2018-11-14T18:12:54.662Z,36.53
2018-11-14T18:15:22.867Z,33.43
2018-11-14T18:17:52.810Z,29.20
2018-11-14T18:20:22.379Z,29.80
2018-11-14T18:22:51.368Z,32.53
2018-11-14T18:25:22.537Z,45.03
2018-11-14T18:27:50.797Z,36.70
2018-11-14T18:30:20.221Z,49.97
2018-11-14T18:32:48.685Z,67.07
2018-11-14T18:35:17.848Z,37.83
2018-11-14T18:37:46.644Z,43.13
2018-11-14T18:40:17.083Z,51.80
2018-11-14T18:42:45.391Z,101.10
2018-11-14T18:45:19.022Z,99.17
2018-11-14T18:47:47.641Z,29.50
2018-11-14T18:50:16.722Z,62.63
2018-11-14T18:52:45.730Z,32.47
2018-11-14T18:55:15.276Z,40.90
2018-11-14T18:57:43.775Z,29.63
2018-11-14T19:00:15.546Z,27.83
2018-11-14T19:02:44.054Z,72.33
2018-11-14T19:05:12.647Z,30.40
2018-11-14T19:07:41.123Z,50.73
2018-11-14T19:10:11.764Z,29.90
2018-11-14T19:12:40.508Z,42.77
2018-11-14T19:15:15.893Z,32.57
2018-11-14T19:17:44.125Z,30.50
2018-11-14T19:20:13.891Z,31.10
2018-11-14T19:22:42.367Z,41.10
2018-11-14T19:25:13.086Z,35.03
2018-11-14T19:27:41.785Z,41.07
2018-11-14T19:30:12.418Z,33.50
2018-11-14T19:32:40.893Z,35.83
2018-11-14T19:35:10.415Z,36.37
2018-11-14T19:37:38.886Z,49.30
2018-11-14T19:40:09.440Z,48.97
2018-11-14T19:42:37.673Z,39.47
2018-11-14T19:45:09.468Z,25.90
2018-11-14T19:47:37.698Z,24.63
2018-11-14T19:50:08.046Z,73.13
2018-11-14T19:52:36.334Z,45.73
2018-11-14T19:55:04.905Z,83.03
2018-11-14T19:57:33.131Z,46.67
2018-11-14T20:00:01.548Z,60.50
2018-11-14T20:02:29.787Z,35.20
2018-11-14T20:04:58.030Z,53.73
2018-11-14T20:07:26.235Z,41.60
2018-11-14T20:09:54.449Z,30.20
2018-11-14T20:12:22.753Z,52.87
2018-11-14T20:14:51.084Z,34.90
2018-11-14T20:17:19.310Z,35.97
2018-11-14T20:19:47.522Z,48.77
2018-11-14T20:22:15.771Z,30.53
2018-11-14T20:24:44.072Z,28.20
2018-11-14T20:27:12.270Z,36.70
2018-11-14T20:29:40.539Z,30.53
2018-11-14T20:32:08.829Z,47.80
2018-11-14T20:34:37.072Z,38.10
2018-11-14T20:37:05.323Z,35.70
2018-11-14T20:39:33.533Z,29.50
2018-11-14T20:42:01.779Z,33.77
2018-11-14T20:44:30.210Z,57.87
2018-11-14T20:46:58.434Z,38.93
2018-11-14T20:49:26.662Z,33.63
2018-11-14T20:51:54.872Z,33.43
2018-11-14T20:54:23.078Z,28.20
2018-11-14T20:56:51.272Z,32.07
2018-11-14T20:59:19.475Z,40.33
2018-11-14T21:01:47.668Z,26.03
2018-11-14T21:04:15.870Z,30.73
2018-11-14T21:06:44.070Z,25.83
2018-11-14T21:09:12.286Z,27.77
2018-11-14T21:11:40.488Z,22.00
2018-11-14T21:14:08.693Z,29.77
2018-11-14T21:16:36.892Z,33.73
2018-11-14T21:19:05.103Z,27.20
2018-11-14T21:21:33.301Z,23.40
2018-11-14T21:24:01.549Z,26.47
2018-11-14T21:26:29.729Z,21.50
2018-11-14T21:28:57.968Z,23.60
2018-11-14T21:31:26.158Z,27.60
2018-11-14T21:33:54.389Z,25.37
2018-11-14T21:36:22.583Z,24.60
2018-11-14T21:38:50.789Z,22.97
2018-11-14T21:41:19.001Z,23.20
2018-11-14T21:43:47.205Z,26.73
2018-11-14T21:46:15.446Z,23.27
2018-11-14T21:48:43.653Z,21.60
2018-11-14T21:51:11.892Z,23.97
2018-11-14T21:53:40.097Z,28.73
2018-11-14T21:56:08.304Z,27.83
2018-11-14T21:58:36.518Z,23.57
2018-11-14T22:01:05.143Z,22.73
2018-11-14T22:03:33.353Z,19.83
2018-11-14T22:06:01.583Z,22.63
2018-11-14T22:08:29.770Z,22.20
2018-11-14T22:10:57.973Z,24.43
2018-11-14T22:13:26.201Z,18.73
2018-11-14T22:15:54.406Z,18.67
2018-11-14T22:18:22.621Z,26.80
2018-11-14T22:20:50.815Z,16.27
2018-11-14T22:23:19.012Z,27.67
2018-11-14T22:25:47.209Z,16.90
2018-11-14T22:28:15.399Z,17.77
2018-11-14T22:30:43.602Z,13.73
2018-11-14T22:33:11.785Z,14.77
2018-11-14T22:35:39.977Z,15.00
2018-11-14T22:38:08.158Z,18.50
2018-11-14T22:40:36.394Z,15.20
2018-11-14T22:43:04.694Z,13.73
2018-11-14T22:45:33.423Z,15.67
2018-11-14T22:48:01.617Z,16.10
2018-11-14T22:50:29.807Z,22.73
2018-11-14T22:52:58.007Z,19.63
2018-11-14T22:55:26.532Z,15.90
2018-11-14T22:57:55.013Z,15.80
2018-11-14T23:00:26.261Z,12.77
2018-11-14T23:02:55.549Z,18.00
2018-11-14T23:05:23.787Z,16.57
2018-11-14T23:07:53.060Z,14.30
2018-11-14T23:10:22.121Z,14.53
2018-11-14T23:12:50.597Z,12.30
2018-11-14T23:15:19.313Z,15.63
2018-11-14T23:17:47.478Z,13.53
2018-11-14T23:20:16.366Z,13.90
2018-11-14T23:22:45.253Z,14.00
2018-11-14T23:25:13.942Z,13.23
2018-11-14T23:27:44.071Z,13.37
2018-11-14T23:30:13.268Z,13.63
2018-11-14T23:32:42.651Z,11.80
2018-11-14T23:35:16.189Z,12.10
2018-11-14T23:37:45.870Z,13.23
2018-11-14T23:40:14.066Z,13.73
2018-11-14T23:42:42.281Z,10.37
2018-11-14T23:45:12.551Z,13.70
2018-11-14T23:47:41.114Z,13.53
2018-11-14T23:50:11.998Z,13.23
2018-11-14T23:52:40.585Z,13.63
2018-11-14T23:55:09.142Z,13.60
2018-11-14T23:57:37.609Z,13.90
